createdAt,value
2022-11-03T00:02:18.273Z,9.81
2022-11-03T00:04:46.878Z,9.77
2022-11-03T00:07:21.509Z,9.79
2022-11-03T00:09:49.904Z,9.83
2022-11-03T00:12:18.023Z,9.85
2022-11-03T00:14:45.854Z,9.85
2022-11-03T00:17:13.697Z,9.80
2022-11-03T00:19:41.565Z,9.72
2022-11-03T00:22:09.419Z,9.77
2022-11-03T00:24:37.297Z,9.79
2022-11-03T00:27:05.184Z,9.77
2022-11-03T00:29:33.383Z,9.79
2022-11-03T00:32:01.539Z,9.84
2022-11-03T00:34:29.419Z,9.84
2022-11-03T00:36:57.900Z,9.86
2022-11-03T00:39:25.881Z,9.88
2022-11-03T00:42:34.462Z,9.85
2022-11-03T00:45:02.363Z,9.84
2022-11-03T00:47:30.228Z,9.83
2022-11-03T00:49:58.160Z,9.84
2022-11-03T00:52:25.982Z,9.85
2022-11-03T00:54:55.387Z,9.86
2022-11-03T00:57:23.583Z,9.89
2022-11-03T01:03:14.620Z,9.91
2022-11-03T01:06:02.555Z,9.88
2022-11-03T01:08:34.539Z,9.85
2022-11-03T01:11:33.314Z,9.86
2022-11-03T01:14:01.514Z,9.86
2022-11-03T01:16:30.828Z,9.85
2022-11-03T01:18:59.485Z,9.87
2022-11-03T01:21:27.968Z,9.85
2022-11-03T01:23:56.180Z,9.81
2022-11-03T01:26:24.086Z,9.79
2022-11-03T01:28:54.341Z,9.77
2022-11-03T01:31:24.319Z,9.78
2022-11-03T01:33:53.854Z,9.78
2022-11-03T01:36:22.220Z,9.79
2022-11-03T01:38:50.570Z,9.78
2022-11-03T01:41:22.785Z,9.76
2022-11-03T01:44:12.487Z,9.74
2022-11-03T01:46:53.228Z,9.76
2022-11-03T01:49:33.301Z,9.79
2022-11-03T01:52:11.414Z,9.77
2022-11-03T01:54:42.623Z,9.79
2022-11-03T01:57:19.754Z,9.81
2022-11-03T01:59:48.639Z,9.81
2022-11-03T02:02:18.399Z,9.83
2022-11-03T02:04:47.172Z,9.82
2022-11-03T02:07:51.077Z,9.83
2022-11-03T02:10:19.001Z,9.83
2022-11-03T02:12:48.260Z,9.83
2022-11-03T02:15:19.106Z,9.81
2022-11-03T02:17:49.044Z,9.79
2022-11-03T02:20:24.027Z,9.79
2022-11-03T02:23:20.578Z,9.82
2022-11-03T02:25:52.310Z,9.84
2022-11-03T02:28:24.324Z,9.83
2022-11-03T02:31:19.903Z,9.83
2022-11-03T02:34:02.724Z,9.82
2022-11-03T02:36:46.354Z,9.80
2022-11-03T02:39:25.679Z,9.80
2022-11-03T02:41:56.900Z,9.81
2022-11-03T02:44:27.107Z,9.80
2022-11-03T02:46:59.264Z,9.80
2022-11-03T02:49:27.634Z,9.81
2022-11-03T02:52:03.556Z,9.80
2022-11-03T02:54:44.631Z,9.79
2022-11-03T02:57:22.016Z,9.78
2022-11-03T03:00:05.872Z,9.78
2022-11-03T03:03:04.307Z,9.77
2022-11-03T03:05:35.367Z,9.74
2022-11-03T03:08:07.301Z,9.75
2022-11-03T03:10:45.212Z,9.77
2022-11-03T03:13:16.961Z,9.77
2022-11-03T03:15:53.638Z,9.77
2022-11-03T03:18:42.309Z,9.75
2022-11-03T03:21:19.643Z,9.76
2022-11-03T03:24:09.962Z,9.76
2022-11-03T03:26:44.712Z,9.74
2022-11-03T03:29:24.952Z,9.77
2022-11-03T03:32:06.664Z,9.75
2022-11-03T03:34:37.818Z,9.77
2022-11-03T03:37:07.757Z,9.78
2022-11-03T03:39:40.949Z,9.76
2022-11-03T03:42:11.474Z,9.80
2022-11-03T03:44:42.696Z,9.82
2022-11-03T03:47:17.733Z,9.79
2022-11-03T03:49:45.650Z,9.77
2022-11-03T03:52:15.648Z,9.79
2022-11-03T03:54:43.546Z,9.79
2022-11-03T03:57:20.681Z,9.80
2022-11-03T03:59:48.745Z,9.82
2022-11-03T04:02:17.133Z,9.83
2022-11-03T04:04:45.214Z,9.82
2022-11-03T04:07:32.267Z,9.78
2022-11-03T04:10:00.148Z,9.75
2022-11-03T04:12:46.553Z,9.77
2022-11-03T04:15:32.837Z,9.82
2022-11-03T04:18:19.555Z,9.85
2022-11-03T04:21:06.301Z,9.82
2022-11-03T04:23:34.202Z,9.82
2022-11-03T04:26:02.235Z,9.85
2022-11-03T04:28:30.271Z,9.81
2022-11-03T04:30:59.703Z,9.80
2022-11-03T04:33:29.723Z,9.80
2022-11-03T04:36:00.664Z,9.77
2022-11-03T04:38:30.198Z,9.83
2022-11-03T04:40:59.038Z,9.83
2022-11-03T04:43:37.402Z,9.80
2022-11-03T04:46:09.340Z,9.80
2022-11-03T04:48:37.554Z,9.79
2022-11-03T04:51:17.980Z,9.72
2022-11-03T04:53:51.147Z,9.73
2022-11-03T04:56:22.838Z,9.74
2022-11-03T04:58:52.037Z,9.72
2022-11-03T05:01:24.936Z,9.70
2022-11-03T05:03:55.346Z,9.67
2022-11-03T05:06:28.255Z,9.68
2022-11-03T05:09:02.903Z,9.67
2022-11-03T05:11:35.304Z,9.68
2022-11-03T05:14:18.336Z,9.69
2022-11-03T05:16:47.479Z,9.62
2022-11-03T05:19:27.403Z,9.60
2022-11-03T05:21:58.040Z,9.59
2022-11-03T05:24:27.194Z,9.59
2022-11-03T05:26:58.108Z,9.64
2022-11-03T05:29:35.440Z,9.69
2022-11-03T05:32:11.025Z,9.68
2022-11-03T05:34:43.458Z,9.66
2022-11-03T05:37:26.732Z,9.70
2022-11-03T05:40:00.628Z,9.74
2022-11-03T05:42:35.778Z,9.76
2022-11-03T05:45:22.760Z,9.84
2022-11-03T05:47:55.610Z,9.86
2022-11-03T05:50:28.613Z,9.87
2022-11-03T05:53:38.577Z,9.92
2022-11-03T05:56:07.636Z,9.96
2022-11-03T05:58:38.662Z,10.03
2022-11-03T06:01:17.177Z,10.07
2022-11-03T06:03:47.286Z,10.11
2022-11-03T06:06:30.864Z,10.14
2022-11-03T06:09:03.292Z,10.21
2022-11-03T06:11:37.246Z,10.29
2022-11-03T06:14:24.135Z,10.32
2022-11-03T06:16:57.267Z,10.33
2022-11-03T06:19:37.373Z,10.39
2022-11-03T06:22:14.297Z,10.46
2022-11-03T06:24:42.521Z,10.48
2022-11-03T06:27:15.958Z,10.50
2022-11-03T06:29:49.409Z,10.48
2022-11-03T06:32:17.992Z,10.51
2022-11-03T06:34:52.220Z,10.55
2022-11-03T06:37:23.482Z,10.57
2022-11-03T06:39:58.407Z,10.56
2022-11-03T06:42:31.934Z,10.58
2022-11-03T06:45:02.897Z,10.57
2022-11-03T06:47:30.864Z,10.59
2022-11-03T06:50:00.924Z,10.65
2022-11-03T06:52:31.470Z,10.70
2022-11-03T06:55:05.494Z,10.69
2022-11-03T06:57:38.261Z,10.73
2022-11-03T07:00:39.686Z,10.71
2022-11-03T07:03:33.173Z,10.69
2022-11-03T07:06:21.347Z,10.72
2022-11-03T07:08:58.982Z,10.76
2022-11-03T07:11:29.926Z,10.82
2022-11-03T07:14:09.740Z,10.85
2022-11-03T07:16:40.464Z,10.86
2022-11-03T07:19:30.376Z,10.84
2022-11-03T07:22:04.741Z,10.87
2022-11-03T07:24:39.049Z,10.86
2022-11-03T07:27:19.958Z,10.74
2022-11-03T07:29:51.514Z,10.79
2022-11-03T07:32:22.515Z,10.72
2022-11-03T07:34:53.770Z,10.74
2022-11-03T07:37:25.641Z,10.73
2022-11-03T07:39:54.115Z,10.72
2022-11-03T07:42:24.507Z,10.66
2022-11-03T07:44:55.986Z,10.61
2022-11-03T07:47:28.727Z,10.60
2022-11-03T07:49:56.857Z,10.65
2022-11-03T07:52:28.074Z,10.66
2022-11-03T07:54:59.350Z,10.66
2022-11-03T07:57:34.496Z,10.70
2022-11-03T08:00:13.178Z,10.71
2022-11-03T08:02:57.173Z,10.70
2022-11-03T08:05:27.060Z,10.68
2022-11-03T08:07:55.142Z,10.70
2022-11-03T08:10:31.419Z,10.70
2022-11-03T08:13:00.623Z,10.77
2022-11-03T08:15:28.799Z,10.78
2022-11-03T08:17:57.168Z,10.77
2022-11-03T08:20:25.484Z,10.80
2022-11-03T08:23:19.566Z,10.81
2022-11-03T08:25:42.160Z,10.78
2022-11-03T08:28:11.509Z,10.82
2022-11-03T08:30:39.755Z,10.80
2022-11-03T08:33:09.430Z,10.77
2022-11-03T08:35:38.807Z,10.81
2022-11-03T08:38:07.144Z,10.82
2022-11-03T08:40:37.092Z,10.88
2022-11-03T08:43:06.603Z,10.90
2022-11-03T08:45:34.857Z,10.96
2022-11-03T08:48:03.853Z,10.99
2022-11-03T08:50:32.695Z,10.96
2022-11-03T08:53:02.386Z,10.88
2022-11-03T08:55:35.759Z,10.90
2022-11-03T08:58:05.795Z,10.95
2022-11-03T09:00:41.108Z,11.01
2022-11-03T09:03:11.605Z,10.99
2022-11-03T09:05:40.754Z,11.03
2022-11-03T09:11:00.065Z,11.09
2022-11-03T09:13:28.261Z,11.11
2022-11-03T09:15:57.856Z,11.14
2022-11-03T09:18:25.979Z,11.16
2022-11-03T09:20:54.352Z,11.21
2022-11-03T09:23:26.475Z,11.26
2022-11-03T09:25:55.630Z,11.33
2022-11-03T09:28:24.083Z,11.44
2022-11-03T09:30:52.898Z,11.48
2022-11-03T09:33:21.966Z,11.49
2022-11-03T09:35:50.154Z,11.50
2022-11-03T09:38:19.160Z,11.55
2022-11-03T09:43:17.492Z,11.58
2022-11-03T09:45:45.742Z,11.65
2022-11-03T09:48:14.494Z,11.65
2022-11-03T09:50:43.105Z,11.67
2022-11-03T09:53:14.552Z,11.80
2022-11-03T09:55:42.923Z,11.92
2022-11-03T09:58:15.182Z,11.91
2022-11-03T10:00:46.619Z,11.97
2022-11-03T10:03:18.311Z,11.98
2022-11-03T10:05:49.196Z,12.12
2022-11-03T10:08:37.895Z,12.23
2022-11-03T10:11:09.463Z,12.21
2022-11-03T10:13:41.571Z,12.17
2022-11-03T10:16:15.154Z,12.28
2022-11-03T10:18:45.083Z,12.36
2022-11-03T10:21:13.399Z,12.33
2022-11-03T10:23:41.601Z,12.21
2022-11-03T10:26:19.226Z,12.20
2022-11-03T10:29:05.797Z,12.23
2022-11-03T10:31:38.962Z,12.25
2022-11-03T10:34:28.538Z,12.29
2022-11-03T10:37:17.120Z,12.25
2022-11-03T10:39:46.250Z,12.26
2022-11-03T10:42:35.761Z,12.39
2022-11-03T10:45:20.044Z,12.36
2022-11-03T10:48:02.540Z,12.34
2022-11-03T10:50:30.947Z,12.43
2022-11-03T10:52:59.182Z,12.36
2022-11-03T10:55:28.724Z,12.22
2022-11-03T10:57:59.286Z,12.30
2022-11-03T11:00:30.469Z,12.35
2022-11-03T11:03:02.231Z,12.40
2022-11-03T11:05:30.727Z,12.41
2022-11-03T11:07:59.530Z,12.23
2022-11-03T11:10:31.775Z,12.26
2022-11-03T11:13:18.825Z,12.22
2022-11-03T11:15:49.359Z,12.09
2022-11-03T11:18:39.222Z,12.17
2022-11-03T11:21:17.717Z,12.15
2022-11-03T11:23:48.227Z,12.36
2022-11-03T11:26:31.503Z,12.55
2022-11-03T11:29:08.957Z,12.68
2022-11-03T11:31:37.809Z,12.87
2022-11-03T11:34:23.805Z,12.93
2022-11-03T11:36:55.652Z,12.94
2022-11-03T11:39:24.734Z,12.95
2022-11-03T11:42:15.744Z,13.04
2022-11-03T11:45:00.880Z,13.03
2022-11-03T11:47:32.049Z,12.88
2022-11-03T11:50:11.042Z,12.82
2022-11-03T11:52:51.426Z,12.95
2022-11-03T11:55:38.387Z,13.04
2022-11-03T11:58:21.306Z,13.03
2022-11-03T12:01:05.507Z,12.91
2022-11-03T12:03:40.322Z,12.92
2022-11-03T12:06:15.243Z,12.96
2022-11-03T12:08:44.152Z,13.00
2022-11-03T12:11:13.416Z,13.07
2022-11-03T12:13:47.686Z,13.06
2022-11-03T12:16:39.271Z,13.10
2022-11-03T12:19:35.613Z,13.13
2022-11-03T12:22:34.712Z,13.14
2022-11-03T12:25:10.037Z,13.06
2022-11-03T12:27:40.337Z,13.05
2022-11-03T12:30:20.631Z,12.87
2022-11-03T12:32:50.076Z,12.91
2022-11-03T12:35:18.554Z,12.98
2022-11-03T12:37:49.465Z,12.96
2022-11-03T12:40:20.100Z,13.04
2022-11-03T12:42:48.193Z,13.09
2022-11-03T12:45:17.374Z,13.12
2022-11-03T12:47:45.408Z,13.17
2022-11-03T12:50:13.899Z,13.18
2022-11-03T12:52:41.917Z,13.13
2022-11-03T12:55:10.406Z,13.10
2022-11-03T12:57:38.450Z,13.09
2022-11-03T13:00:09.070Z,13.00
2022-11-03T13:02:40.374Z,12.97
2022-11-03T13:05:09.163Z,13.04
2022-11-03T13:07:37.996Z,13.10
2022-11-03T13:10:06.692Z,13.22
2022-11-03T13:12:37.269Z,13.22
2022-11-03T13:15:07.635Z,13.34
2022-11-03T13:18:07.297Z,13.37
2022-11-03T13:20:25.743Z,13.42
2022-11-03T13:22:53.976Z,13.43
2022-11-03T13:25:24.462Z,13.52
2022-11-03T13:27:56.169Z,13.60
2022-11-03T13:30:26.061Z,13.49
2022-11-03T13:32:55.588Z,13.41
2022-11-03T13:35:27.164Z,13.46
2022-11-03T13:37:55.501Z,13.36
2022-11-03T13:43:14.258Z,13.44
2022-11-03T13:45:43.999Z,13.38
2022-11-03T13:51:05.579Z,13.29
2022-11-03T13:56:28.398Z,13.78
2022-11-03T14:04:46.890Z,14.07
2022-11-03T14:07:15.832Z,14.06
2022-11-03T14:09:50.316Z,13.89
2022-11-03T14:12:31.071Z,13.71
2022-11-03T14:15:01.407Z,13.47
2022-11-03T14:17:30.204Z,13.27
2022-11-03T14:20:04.488Z,13.11
2022-11-03T14:22:37.156Z,13.00
2022-11-03T14:25:07.935Z,12.89
2022-11-03T14:27:37.506Z,12.75
2022-11-03T14:30:08.235Z,12.63
2022-11-03T14:32:36.993Z,12.47
2022-11-03T14:35:08.835Z,12.32
2022-11-03T14:37:37.032Z,12.24
2022-11-03T14:40:29.187Z,12.14
2022-11-03T14:43:02.243Z,12.02
2022-11-03T14:45:32.071Z,11.91
2022-11-03T14:48:02.287Z,11.81
2022-11-03T14:50:31.655Z,11.72
2022-11-03T14:53:00.181Z,11.61
2022-11-03T14:55:29.694Z,11.48
2022-11-03T14:58:00.775Z,11.39
2022-11-03T15:00:29.026Z,11.30
2022-11-03T15:02:57.177Z,11.23
2022-11-03T15:05:46.429Z,11.15
2022-11-03T15:08:18.056Z,11.06
2022-11-03T15:10:46.980Z,10.97
2022-11-03T15:13:19.145Z,10.88
2022-11-03T15:15:47.764Z,10.79
2022-11-03T15:18:16.272Z,10.69
2022-11-03T15:20:44.631Z,10.59
2022-11-03T15:26:03.843Z,10.44
2022-11-03T15:28:32.294Z,10.37
2022-11-03T15:31:03.546Z,10.33
2022-11-03T15:33:32.961Z,10.31
2022-11-03T15:36:01.794Z,10.27
2022-11-03T15:38:31.295Z,10.23
2022-11-03T15:41:15.786Z,10.17
2022-11-03T15:43:48.976Z,10.09
2022-11-03T15:46:18.243Z,10.02
2022-11-03T15:48:51.657Z,9.95
2022-11-03T15:51:20.787Z,9.91
2022-11-03T15:53:54.980Z,9.87
2022-11-03T15:56:27.657Z,9.82
2022-11-03T15:59:00.866Z,9.78
2022-11-03T16:01:29.662Z,9.77
2022-11-03T16:03:58.797Z,9.75
2022-11-03T16:06:40.538Z,9.69
2022-11-03T16:09:15.028Z,9.62
2022-11-03T16:11:43.793Z,9.54
2022-11-03T16:14:12.301Z,9.46
2022-11-03T16:16:53.472Z,9.40
2022-11-03T16:19:22.533Z,9.33
2022-11-03T16:21:51.766Z,9.27
2022-11-03T16:24:19.827Z,9.22
2022-11-03T16:26:47.839Z,9.17
2022-11-03T16:29:15.794Z,9.13
2022-11-03T16:31:43.847Z,9.08
2022-11-03T16:34:12.315Z,9.05
2022-11-03T16:36:40.446Z,9.02
2022-11-03T16:39:09.691Z,8.97
2022-11-03T16:41:39.413Z,8.90
2022-11-03T16:44:09.055Z,8.82
2022-11-03T16:46:38.107Z,8.75
2022-11-03T16:49:06.088Z,8.71
2022-11-03T16:51:34.558Z,8.68
2022-11-03T16:54:02.986Z,8.62
2022-11-03T16:56:31.628Z,8.58
2022-11-03T16:58:59.619Z,8.55
2022-11-03T17:01:28.760Z,8.50
2022-11-03T17:03:57.194Z,8.43
2022-11-03T17:06:25.482Z,8.38
2022-11-03T17:08:56.732Z,8.35
2022-11-03T17:11:39.213Z,8.30
2022-11-03T17:14:13.850Z,8.24
2022-11-03T17:16:46.775Z,8.21
2022-11-03T17:19:16.444Z,8.19
2022-11-03T17:21:46.024Z,8.16
2022-11-03T17:24:15.511Z,8.12
2022-11-03T17:26:57.695Z,8.08
2022-11-03T17:29:39.807Z,8.07
2022-11-03T17:32:15.938Z,8.04
2022-11-03T17:34:43.924Z,7.99
2022-11-03T17:37:14.397Z,7.95
2022-11-03T17:39:43.482Z,7.94
2022-11-03T17:42:21.636Z,7.93
2022-11-03T17:44:51.676Z,7.90
2022-11-03T17:47:20.692Z,7.86
2022-11-03T17:49:53.892Z,7.81
2022-11-03T17:52:27.874Z,7.75
2022-11-03T17:54:59.847Z,7.70
2022-11-03T17:57:28.797Z,7.65
2022-11-03T17:59:59.250Z,7.61
2022-11-03T18:02:31.146Z,7.58
2022-11-03T18:05:14.087Z,7.55
2022-11-03T18:07:44.961Z,7.50
2022-11-03T18:10:14.504Z,7.48
2022-11-03T18:13:07.753Z,7.45
2022-11-03T18:15:38.951Z,7.42
2022-11-03T18:18:34.811Z,7.38
2022-11-03T18:21:03.969Z,7.33
2022-11-03T18:23:34.343Z,7.26
2022-11-03T18:26:04.671Z,7.22
2022-11-03T18:28:32.756Z,7.19
2022-11-03T18:31:01.478Z,7.15
2022-11-03T18:33:31.080Z,7.10
2022-11-03T18:36:03.069Z,7.06
2022-11-03T18:38:31.012Z,7.03
2022-11-03T18:40:59.522Z,6.96
2022-11-03T18:43:30.185Z,6.92
2022-11-03T18:45:58.622Z,6.86
2022-11-03T18:48:27.798Z,6.81
2022-11-03T18:50:57.324Z,6.78
2022-11-03T18:53:27.151Z,6.76
2022-11-03T18:56:00.085Z,6.72
2022-11-03T18:58:33.225Z,6.69
2022-11-03T19:01:01.302Z,6.67
2022-11-03T19:03:33.678Z,6.64
2022-11-03T19:06:01.768Z,6.57
2022-11-03T19:08:33.037Z,6.49
2022-11-03T19:11:03.878Z,6.40
2022-11-03T19:13:44.468Z,6.33
2022-11-03T19:16:16.454Z,6.26
2022-11-03T19:18:45.880Z,6.24
2022-11-03T19:21:14.029Z,6.19
2022-11-03T19:23:47.620Z,6.16
2022-11-03T19:26:21.094Z,6.12
2022-11-03T19:28:53.243Z,6.09
2022-11-03T19:31:28.993Z,6.05
2022-11-03T19:33:58.223Z,6.04
2022-11-03T19:36:28.138Z,6.03
2022-11-03T19:38:56.925Z,6.01
2022-11-03T19:41:44.791Z,5.96
2022-11-03T19:44:13.935Z,5.92
2022-11-03T19:46:42.297Z,5.88
2022-11-03T19:49:14.505Z,5.85
2022-11-03T19:51:42.587Z,5.84
2022-11-03T19:54:16.797Z,5.80
2022-11-03T19:56:47.519Z,5.77
2022-11-03T19:59:17.106Z,5.75
2022-11-03T20:01:45.183Z,5.73
2022-11-03T20:04:13.311Z,5.71
2022-11-03T20:06:41.420Z,5.70
2022-11-03T20:09:16.713Z,5.68
2022-11-03T20:11:45.341Z,5.67
2022-11-03T20:14:25.157Z,5.65
2022-11-03T20:17:00.733Z,5.61
2022-11-03T20:19:28.871Z,5.56
2022-11-03T20:21:59.418Z,5.53
2022-11-03T20:24:27.537Z,5.53
2022-11-03T20:26:56.252Z,5.51
2022-11-03T20:29:24.234Z,5.50
2022-11-03T20:31:52.712Z,5.52
2022-11-03T20:36:56.191Z,5.55
2022-11-03T20:39:27.630Z,5.52
2022-11-03T20:41:57.574Z,5.49
2022-11-03T20:44:27.727Z,5.46
2022-11-03T20:46:56.457Z,5.43
2022-11-03T20:49:26.224Z,5.42
2022-11-03T20:51:54.633Z,5.38
2022-11-03T20:54:22.572Z,5.36
2022-11-03T20:56:51.257Z,5.34
2022-11-03T20:59:23.228Z,5.35
2022-11-03T21:01:52.373Z,5.35
2022-11-03T21:04:21.221Z,5.33
2022-11-03T21:06:49.726Z,5.31
2022-11-03T21:09:19.477Z,5.24
2022-11-03T21:11:48.098Z,5.16
2022-11-03T21:14:21.877Z,5.03
2022-11-03T21:17:09.483Z,4.99
2022-11-03T21:19:57.402Z,4.92
2022-11-03T21:22:53.690Z,4.86
2022-11-03T21:25:24.106Z,4.83
2022-11-03T21:27:54.824Z,4.81
2022-11-03T21:30:23.733Z,4.81
2022-11-03T21:32:52.261Z,4.81
2022-11-03T21:35:22.112Z,4.82
2022-11-03T21:37:50.672Z,4.76
2022-11-03T21:40:19.768Z,4.71
2022-11-03T21:43:06.795Z,4.66
2022-11-03T21:45:35.581Z,4.61
2022-11-03T21:48:22.772Z,4.57
2022-11-03T21:50:51.123Z,4.59
2022-11-03T21:53:19.073Z,4.61
2022-11-03T21:55:48.757Z,4.62
2022-11-03T21:58:16.884Z,4.61
2022-11-03T22:00:47.676Z,4.59
2022-11-03T22:03:15.904Z,4.60
2022-11-03T22:05:43.811Z,4.57
2022-11-03T22:08:12.070Z,4.56
2022-11-03T22:10:42.461Z,4.57
2022-11-03T22:13:11.041Z,4.56
2022-11-03T22:15:58.037Z,4.54
2022-11-03T22:18:25.973Z,4.54
2022-11-03T22:21:12.652Z,4.53
2022-11-03T22:23:59.128Z,4.51
2022-11-03T22:26:45.632Z,4.49
2022-11-03T22:29:32.023Z,4.46
2022-11-03T22:32:00.149Z,4.44
2022-11-03T22:34:46.841Z,4.40
2022-11-03T22:37:15.244Z,4.36
2022-11-03T22:40:02.511Z,4.34
2022-11-03T22:42:48.996Z,4.34
2022-11-03T22:45:35.524Z,4.33
2022-11-03T22:48:04.894Z,4.30
2022-11-03T22:50:33.152Z,4.32
2022-11-03T22:53:22.156Z,4.33
2022-11-03T22:55:50.091Z,4.29
2022-11-03T22:58:18.071Z,4.28
2022-11-03T23:00:47.613Z,4.23
2022-11-03T23:03:15.771Z,4.17
2022-11-03T23:05:43.732Z,4.07
2022-11-03T23:08:11.742Z,3.95
2022-11-03T23:10:39.833Z,3.81
2022-11-03T23:13:07.957Z,3.70
2022-11-03T23:15:38.399Z,3.64
2022-11-03T23:18:24.831Z,3.59
2022-11-03T23:21:07.815Z,3.56
2022-11-03T23:23:56.487Z,3.53
2022-11-03T23:26:26.890Z,3.53
2022-11-03T23:28:56.231Z,3.49
2022-11-03T23:31:24.205Z,3.46
2022-11-03T23:33:52.517Z,3.43
2022-11-03T23:36:20.648Z,3.41
2022-11-03T23:38:48.599Z,3.41
2022-11-03T23:41:17.895Z,3.44
2022-11-03T23:43:47.539Z,3.46
2022-11-03T23:46:37.849Z,3.48
2022-11-03T23:49:06.794Z,3.47
2022-11-03T23:51:36.423Z,3.48
2022-11-03T23:54:07.693Z,3.52
2022-11-03T23:56:56.829Z,3.59
2022-11-03T23:59:25.799Z,3.59
